Trempealeau, Wisconsin
Current Conditions -  °F | °C
As of 8:53 AM on Friday 19 Dec 2014 (Local Time) from KLSE Reporting Station
Overcast Overcast  
Wind Chill: 21°   Ceiling: 8500
Heat Index: 26°   Visibility: 10mi
Dew Point: 18°   Wind: 5mph
Humidity: 71%   Direction: 120°ESE
Pressure: 30.31"   Gusts: NA
Location:  44.01°N, 91.44°W
Report Text: KLSE 191453Z 12004KT 10SM OVC085 M03/M08 A3031 RMK AO2 SLP278 T10331078 51004
Loading
Personal Weather Stations






























Interactive Weather Map New forecast layout! Learn more

10-Day Weather Forecast

Advertisements
Track Severe Weather on mobile